sensor_id;sensor_type;location;lat;lon;timestamp;temperature;humidity
29363;DHT22;16349;53.672;10.014;2023-11-22T00:01:18;2.80;99.90
29363;DHT22;16349;53.672;10.014;2023-11-22T00:03:45;2.70;99.90
29363;DHT22;16349;53.672;10.014;2023-11-22T00:06:13;2.80;99.90
29363;DHT22;16349;53.672;10.014;2023-11-22T00:08:40;2.70;99.90
29363;DHT22;16349;53.672;10.014;2023-11-22T00:11:08;2.60;99.90
29363;DHT22;16349;53.672;10.014;2023-11-22T00:13:34;2.50;99.90
29363;DHT22;16349;53.672;10.014;2023-11-22T00:16:01;2.50;99.90
29363;DHT22;16349;53.672;10.014;2023-11-22T00:18:29;2.50;99.90
29363;DHT22;16349;53.672;10.014;2023-11-22T00:20:56;2.50;99.90
29363;DHT22;16349;53.672;10.014;2023-11-22T00:23:26;2.50;99.90
29363;DHT22;16349;53.672;10.014;2023-11-22T00:25:55;2.50;99.90
29363;DHT22;16349;53.672;10.014;2023-11-22T00:28:23;2.60;99.90
29363;DHT22;16349;53.672;10.014;2023-11-22T00:30:50;2.60;99.90
29363;DHT22;16349;53.672;10.014;2023-11-22T00:33:17;2.60;99.90
29363;DHT22;16349;53.672;10.014;2023-11-22T00:35:44;2.60;99.90
29363;DHT22;16349;53.672;10.014;2023-11-22T00:38:11;2.60;99.90
29363;DHT22;16349;53.672;10.014;2023-11-22T00:40:41;2.60;99.90
29363;DHT22;16349;53.672;10.014;2023-11-22T00:43:07;2.60;99.90
29363;DHT22;16349;53.672;10.014;2023-11-22T00:45:35;2.50;99.90
29363;DHT22;16349;53.672;10.014;2023-11-22T00:48:01;2.20;99.90
29363;DHT22;16349;53.672;10.014;2023-11-22T00:50:28;2.10;99.90
29363;DHT22;16349;53.672;10.014;2023-11-22T00:52:55;2.00;99.90
29363;DHT22;16349;53.672;10.014;2023-11-22T00:55:22;2.00;99.90
29363;DHT22;16349;53.672;10.014;2023-11-22T00:57:50;2.00;99.90
29363;DHT22;16349;53.672;10.014;2023-11-22T01:00:17;1.90;99.90
29363;DHT22;16349;53.672;10.014;2023-11-22T01:02:44;1.80;99.90
29363;DHT22;16349;53.672;10.014;2023-11-22T01:05:11;1.80;99.90
29363;DHT22;16349;53.672;10.014;2023-11-22T01:07:38;1.80;99.90
29363;DHT22;16349;53.672;10.014;2023-11-22T01:10:06;1.80;99.90
29363;DHT22;16349;53.672;10.014;2023-11-22T01:12:33;1.80;99.90
29363;DHT22;16349;53.672;10.014;2023-11-22T01:15:02;1.80;99.90
29363;DHT22;16349;53.672;10.014;2023-11-22T01:17:29;1.80;99.90
29363;DHT22;16349;53.672;10.014;2023-11-22T01:19:57;1.80;99.90
29363;DHT22;16349;53.672;10.014;2023-11-22T01:22:25;1.70;99.90
29363;DHT22;16349;53.672;10.014;2023-11-22T01:24:53;1.60;99.90
29363;DHT22;16349;53.672;10.014;2023-11-22T01:27:19;1.60;99.90
29363;DHT22;16349;53.672;10.014;2023-11-22T01:29:46;1.60;99.90
29363;DHT22;16349;53.672;10.014;2023-11-22T01:32:14;1.60;99.90
29363;DHT22;16349;53.672;10.014;2023-11-22T01:34:42;1.60;99.90
29363;DHT22;16349;53.672;10.014;2023-11-22T01:37:09;1.60;99.90
29363;DHT22;16349;53.672;10.014;2023-11-22T01:39:39;1.60;99.90
29363;DHT22;16349;53.672;10.014;2023-11-22T01:42:07;1.60;99.90
29363;DHT22;16349;53.672;10.014;2023-11-22T01:44:35;1.60;99.90
29363;DHT22;16349;53.672;10.014;2023-11-22T01:47:02;1.60;99.90
29363;DHT22;16349;53.672;10.014;2023-11-22T01:49:32;1.50;99.90
29363;DHT22;16349;53.672;10.014;2023-11-22T01:52:01;1.60;99.90
29363;DHT22;16349;53.672;10.014;2023-11-22T01:54:30;1.50;99.90
29363;DHT22;16349;53.672;10.014;2023-11-22T01:56:56;1.50;99.90
29363;DHT22;16349;53.672;10.014;2023-11-22T01:59:24;1.50;99.90
29363;DHT22;16349;53.672;10.014;2023-11-22T02:01:53;1.40;99.90
29363;DHT22;16349;53.672;10.014;2023-11-22T02:04:20;1.50;99.90
29363;DHT22;16349;53.672;10.014;2023-11-22T02:06:48;1.40;99.90
29363;DHT22;16349;53.672;10.014;2023-11-22T02:09:16;1.40;99.90
29363;DHT22;16349;53.672;10.014;2023-11-22T02:11:43;1.40;99.90
29363;DHT22;16349;53.672;10.014;2023-11-22T02:14:11;1.40;99.90
29363;DHT22;16349;53.672;10.014;2023-11-22T02:16:38;1.50;99.90
29363;DHT22;16349;53.672;10.014;2023-11-22T02:19:06;1.50;99.90
29363;DHT22;16349;53.672;10.014;2023-11-22T02:21:33;1.50;99.90
29363;DHT22;16349;53.672;10.014;2023-11-22T02:24:01;1.60;99.90
29363;DHT22;16349;53.672;10.014;2023-11-22T02:26:28;1.50;99.90
29363;DHT22;16349;53.672;10.014;2023-11-22T02:28:56;1.40;99.90
29363;DHT22;16349;53.672;10.014;2023-11-22T02:31:24;1.30;99.90
29363;DHT22;16349;53.672;10.014;2023-11-22T02:33:53;1.30;99.90
29363;DHT22;16349;53.672;10.014;2023-11-22T02:36:20;1.20;99.90
29363;DHT22;16349;53.672;10.014;2023-11-22T02:38:47;1.10;99.90
29363;DHT22;16349;53.672;10.014;2023-11-22T02:41:15;1.20;99.90
29363;DHT22;16349;53.672;10.014;2023-11-22T02:43:42;1.20;99.90
29363;DHT22;16349;53.672;10.014;2023-11-22T02:46:09;1.20;99.90
29363;DHT22;16349;53.672;10.014;2023-11-22T02:48:36;1.20;99.90
29363;DHT22;16349;53.672;10.014;2023-11-22T02:51:03;1.20;99.90
29363;DHT22;16349;53.672;10.014;2023-11-22T02:53:32;1.20;99.90
29363;DHT22;16349;53.672;10.014;2023-11-22T02:55:59;1.20;99.90
29363;DHT22;16349;53.672;10.014;2023-11-22T02:58:27;1.10;99.90
29363;DHT22;16349;53.672;10.014;2023-11-22T03:00:54;1.10;99.90
29363;DHT22;16349;53.672;10.014;2023-11-22T03:03:22;1.10;99.90
29363;DHT22;16349;53.672;10.014;2023-11-22T03:05:50;1.00;99.90
29363;DHT22;16349;53.672;10.014;2023-11-22T03:08:17;0.90;99.90
29363;DHT22;16349;53.672;10.014;2023-11-22T03:10:43;1.00;99.90
29363;DHT22;16349;53.672;10.014;2023-11-22T03:13:11;0.90;99.90
29363;DHT22;16349;53.672;10.014;2023-11-22T03:15:39;0.90;99.90
29363;DHT22;16349;53.672;10.014;2023-11-22T03:18:07;0.90;99.90
29363;DHT22;16349;53.672;10.014;2023-11-22T03:20:34;1.00;99.90
29363;DHT22;16349;53.672;10.014;2023-11-22T03:23:03;0.90;99.90
29363;DHT22;16349;53.672;10.014;2023-11-22T03:25:30;0.90;99.90
29363;DHT22;16349;53.672;10.014;2023-11-22T03:27:58;0.90;99.90
29363;DHT22;16349;53.672;10.014;2023-11-22T03:30:24;1.00;99.90
29363;DHT22;16349;53.672;10.014;2023-11-22T03:32:53;1.00;99.90
29363;DHT22;16349;53.672;10.014;2023-11-22T03:35:20;1.00;99.90
29363;DHT22;16349;53.672;10.014;2023-11-22T03:37:46;1.00;99.90
29363;DHT22;16349;53.672;10.014;2023-11-22T03:40:13;1.00;99.90
29363;DHT22;16349;53.672;10.014;2023-11-22T03:42:41;1.00;99.90
29363;DHT22;16349;53.672;10.014;2023-11-22T03:45:08;1.00;99.90
29363;DHT22;16349;53.672;10.014;2023-11-22T03:47:36;1.00;99.90
29363;DHT22;16349;53.672;10.014;2023-11-22T03:50:06;0.90;99.90
29363;DHT22;16349;53.672;10.014;2023-11-22T03:52:33;0.90;99.90
29363;DHT22;16349;53.672;10.014;2023-11-22T03:55:00;0.90;99.90
29363;DHT22;16349;53.672;10.014;2023-11-22T03:57:28;0.90;99.90
29363;DHT22;16349;53.672;10.014;2023-11-22T03:59:54;0.90;99.90
29363;DHT22;16349;53.672;10.014;2023-11-22T04:02:21;0.80;99.90
29363;DHT22;16349;53.672;10.014;2023-11-22T04:04:48;0.80;99.90
29363;DHT22;16349;53.672;10.014;2023-11-22T04:07:16;0.80;99.90
29363;DHT22;16349;53.672;10.014;2023-11-22T04:09:44;0.80;99.90
29363;DHT22;16349;53.672;10.014;2023-11-22T04:12:11;0.80;99.90
29363;DHT22;16349;53.672;10.014;2023-11-22T04:14:38;0.90;99.90
29363;DHT22;16349;53.672;10.014;2023-11-22T04:17:04;1.00;99.90
29363;DHT22;16349;53.672;10.014;2023-11-22T04:19:31;1.00;99.90
29363;DHT22;16349;53.672;10.014;2023-11-22T04:21:58;0.90;99.90
29363;DHT22;16349;53.672;10.014;2023-11-22T04:24:27;0.80;99.90
29363;DHT22;16349;53.672;10.014;2023-11-22T04:26:53;0.80;99.90
29363;DHT22;16349;53.672;10.014;2023-11-22T04:29:20;0.80;99.90
29363;DHT22;16349;53.672;10.014;2023-11-22T04:31:47;0.90;99.90
29363;DHT22;16349;53.672;10.014;2023-11-22T04:34:14;0.90;99.90
29363;DHT22;16349;53.672;10.014;2023-11-22T04:36:41;0.70;99.90
29363;DHT22;16349;53.672;10.014;2023-11-22T04:39:08;0.70;99.90
29363;DHT22;16349;53.672;10.014;2023-11-22T04:41:37;0.70;99.90
29363;DHT22;16349;53.672;10.014;2023-11-22T04:44:04;0.60;99.90
29363;DHT22;16349;53.672;10.014;2023-11-22T04:46:31;0.70;99.90
29363;DHT22;16349;53.672;10.014;2023-11-22T04:48:58;0.80;99.90
29363;DHT22;16349;53.672;10.014;2023-11-22T04:51:25;0.80;99.90
29363;DHT22;16349;53.672;10.014;2023-11-22T04:53:54;0.80;99.90
29363;DHT22;16349;53.672;10.014;2023-11-22T04:56:21;0.90;99.90
29363;DHT22;16349;53.672;10.014;2023-11-22T04:58:49;0.90;99.90
29363;DHT22;16349;53.672;10.014;2023-11-22T05:01:16;0.90;99.90
29363;DHT22;16349;53.672;10.014;2023-11-22T05:03:43;0.80;99.90
29363;DHT22;16349;53.672;10.014;2023-11-22T05:06:10;0.80;99.90
29363;DHT22;16349;53.672;10.014;2023-11-22T05:08:36;0.70;99.90
29363;DHT22;16349;53.672;10.014;2023-11-22T05:11:03;0.70;99.90
29363;DHT22;16349;53.672;10.014;2023-11-22T05:13:30;0.60;99.90
29363;DHT22;16349;53.672;10.014;2023-11-22T05:15:58;0.50;99.90
29363;DHT22;16349;53.672;10.014;2023-11-22T05:18:26;0.60;99.90
29363;DHT22;16349;53.672;10.014;2023-11-22T05:20:53;0.70;99.90
29363;DHT22;16349;53.672;10.014;2023-11-22T05:23:20;0.80;99.90
29363;DHT22;16349;53.672;10.014;2023-11-22T05:25:47;0.80;99.90
29363;DHT22;16349;53.672;10.014;2023-11-22T05:28:14;0.80;99.90
29363;DHT22;16349;53.672;10.014;2023-11-22T05:30:41;0.80;99.90
29363;DHT22;16349;53.672;10.014;2023-11-22T05:33:09;0.80;99.90
29363;DHT22;16349;53.672;10.014;2023-11-22T05:35:36;0.90;99.90
29363;DHT22;16349;53.672;10.014;2023-11-22T05:38:03;0.80;99.90
29363;DHT22;16349;53.672;10.014;2023-11-22T05:40:30;0.80;99.90
29363;DHT22;16349;53.672;10.014;2023-11-22T05:42:57;0.70;99.90
29363;DHT22;16349;53.672;10.014;2023-11-22T05:45:23;0.60;99.90
29363;DHT22;16349;53.672;10.014;2023-11-22T05:47:50;0.60;99.90
29363;DHT22;16349;53.672;10.014;2023-11-22T05:50:19;0.60;99.90
29363;DHT22;16349;53.672;10.014;2023-11-22T05:52:45;0.50;99.90
29363;DHT22;16349;53.672;10.014;2023-11-22T05:55:12;0.50;99.90
29363;DHT22;16349;53.672;10.014;2023-11-22T05:57:40;0.40;99.90
29363;DHT22;16349;53.672;10.014;2023-11-22T06:00:08;0.40;99.90
29363;DHT22;16349;53.672;10.014;2023-11-22T06:02:35;0.30;99.90
29363;DHT22;16349;53.672;10.014;2023-11-22T06:05:03;0.20;99.90
29363;DHT22;16349;53.672;10.014;2023-11-22T06:07:32;0.10;99.90
29363;DHT22;16349;53.672;10.014;2023-11-22T06:09:59;0.10;99.90
29363;DHT22;16349;53.672;10.014;2023-11-22T06:12:27;0.10;99.90
29363;DHT22;16349;53.672;10.014;2023-11-22T06:14:54;0.10;99.90
29363;DHT22;16349;53.672;10.014;2023-11-22T06:17:20;0.10;99.90
29363;DHT22;16349;53.672;10.014;2023-11-22T06:19:47;0.20;99.90
29363;DHT22;16349;53.672;10.014;2023-11-22T06:22:14;0.10;99.90
29363;DHT22;16349;53.672;10.014;2023-11-22T06:24:43;0.10;99.90
29363;DHT22;16349;53.672;10.014;2023-11-22T06:27:13;0.20;99.90
29363;DHT22;16349;53.672;10.014;2023-11-22T06:29:41;0.20;99.90
29363;DHT22;16349;53.672;10.014;2023-11-22T06:32:10;0.20;99.90
29363;DHT22;16349;53.672;10.014;2023-11-22T06:34:36;0.30;99.90
29363;DHT22;16349;53.672;10.014;2023-11-22T06:37:04;0.30;99.90
29363;DHT22;16349;53.672;10.014;2023-11-22T06:39:32;0.30;99.90
29363;DHT22;16349;53.672;10.014;2023-11-22T06:42:00;0.20;99.90
29363;DHT22;16349;53.672;10.014;2023-11-22T06:44:27;0.10;99.90
29363;DHT22;16349;53.672;10.014;2023-11-22T06:46:54;0.10;99.90
29363;DHT22;16349;53.672;10.014;2023-11-22T06:49:21;0.10;99.90
29363;DHT22;16349;53.672;10.014;2023-11-22T06:51:48;0.10;99.90
29363;DHT22;16349;53.672;10.014;2023-11-22T06:54:15;0.10;99.90
29363;DHT22;16349;53.672;10.014;2023-11-22T06:56:42;0.10;99.90
29363;DHT22;16349;53.672;10.014;2023-11-22T06:59:10;0.20;99.90
29363;DHT22;16349;53.672;10.014;2023-11-22T07:01:36;0.20;99.90
29363;DHT22;16349;53.672;10.014;2023-11-22T07:04:05;0.20;99.90
29363;DHT22;16349;53.672;10.014;2023-11-22T07:06:32;0.30;99.90
29363;DHT22;16349;53.672;10.014;2023-11-22T07:08:59;0.40;99.90
29363;DHT22;16349;53.672;10.014;2023-11-22T07:11:27;0.40;99.90
29363;DHT22;16349;53.672;10.014;2023-11-22T07:13:56;0.40;99.90
29363;DHT22;16349;53.672;10.014;2023-11-22T07:16:24;0.40;99.90
29363;DHT22;16349;53.672;10.014;2023-11-22T07:18:51;0.40;99.90
29363;DHT22;16349;53.672;10.014;2023-11-22T07:21:18;0.40;99.90
29363;DHT22;16349;53.672;10.014;2023-11-22T07:23:46;0.50;99.90
29363;DHT22;16349;53.672;10.014;2023-11-22T07:26:13;0.50;99.90
29363;DHT22;16349;53.672;10.014;2023-11-22T07:28:40;0.50;99.90
29363;DHT22;16349;53.672;10.014;2023-11-22T07:31:07;0.60;99.90
29363;DHT22;16349;53.672;10.014;2023-11-22T07:33:36;0.60;99.90
29363;DHT22;16349;53.672;10.014;2023-11-22T07:36:04;0.70;99.90
29363;DHT22;16349;53.672;10.014;2023-11-22T07:38:31;0.70;99.90
29363;DHT22;16349;53.672;10.014;2023-11-22T07:40:59;0.70;99.90
29363;DHT22;16349;53.672;10.014;2023-11-22T07:43:26;0.70;99.90
29363;DHT22;16349;53.672;10.014;2023-11-22T07:45:53;0.80;99.90
29363;DHT22;16349;53.672;10.014;2023-11-22T07:48:20;0.80;99.90
29363;DHT22;16349;53.672;10.014;2023-11-22T07:50:49;0.90;99.90
29363;DHT22;16349;53.672;10.014;2023-11-22T07:53:17;0.90;99.90
29363;DHT22;16349;53.672;10.014;2023-11-22T07:55:44;1.00;99.90
29363;DHT22;16349;53.672;10.014;2023-11-22T07:58:11;1.10;99.90
29363;DHT22;16349;53.672;10.014;2023-11-22T08:00:38;1.10;99.90
29363;DHT22;16349;53.672;10.014;2023-11-22T08:03:07;1.20;99.90
29363;DHT22;16349;53.672;10.014;2023-11-22T08:05:34;1.20;99.90
29363;DHT22;16349;53.672;10.014;2023-11-22T08:08:04;1.20;99.90
29363;DHT22;16349;53.672;10.014;2023-11-22T08:10:33;1.30;99.90
29363;DHT22;16349;53.672;10.014;2023-11-22T08:13:00;1.30;99.90
29363;DHT22;16349;53.672;10.014;2023-11-22T08:15:27;1.40;99.90
29363;DHT22;16349;53.672;10.014;2023-11-22T08:17:57;1.40;99.90
29363;DHT22;16349;53.672;10.014;2023-11-22T08:20:24;1.40;99.90
29363;DHT22;16349;53.672;10.014;2023-11-22T08:22:51;1.30;99.90
29363;DHT22;16349;53.672;10.014;2023-11-22T08:25:19;1.30;99.90
29363;DHT22;16349;53.672;10.014;2023-11-22T08:27:46;1.40;99.90
29363;DHT22;16349;53.672;10.014;2023-11-22T08:30:13;1.40;99.90
29363;DHT22;16349;53.672;10.014;2023-11-22T08:32:41;1.40;99.90
29363;DHT22;16349;53.672;10.014;2023-11-22T08:35:09;1.40;99.90
29363;DHT22;16349;53.672;10.014;2023-11-22T08:37:41;1.40;99.90
29363;DHT22;16349;53.672;10.014;2023-11-22T08:40:09;1.50;99.90
29363;DHT22;16349;53.672;10.014;2023-11-22T08:42:38;1.60;99.90
29363;DHT22;16349;53.672;10.014;2023-11-22T08:45:07;1.60;99.90
29363;DHT22;16349;53.672;10.014;2023-11-22T08:47:35;1.60;99.90
29363;DHT22;16349;53.672;10.014;2023-11-22T08:50:02;1.60;99.90
29363;DHT22;16349;53.672;10.014;2023-11-22T08:52:31;1.60;99.90
29363;DHT22;16349;53.672;10.014;2023-11-22T08:54:57;1.60;99.90
29363;DHT22;16349;53.672;10.014;2023-11-22T08:57:26;1.70;99.90
29363;DHT22;16349;53.672;10.014;2023-11-22T08:59:54;1.70;99.90
29363;DHT22;16349;53.672;10.014;2023-11-22T09:02:21;1.80;99.90
29363;DHT22;16349;53.672;10.014;2023-11-22T09:04:48;1.80;99.90
29363;DHT22;16349;53.672;10.014;2023-11-22T09:07:15;1.90;99.90
29363;DHT22;16349;53.672;10.014;2023-11-22T09:09:42;1.90;99.90
29363;DHT22;16349;53.672;10.014;2023-11-22T09:12:09;1.90;99.90
29363;DHT22;16349;53.672;10.014;2023-11-22T09:14:39;1.90;99.90
29363;DHT22;16349;53.672;10.014;2023-11-22T09:17:08;2.00;99.90
29363;DHT22;16349;53.672;10.014;2023-11-22T09:19:35;2.00;99.90
29363;DHT22;16349;53.672;10.014;2023-11-22T09:22:03;2.10;99.90
29363;DHT22;16349;53.672;10.014;2023-11-22T09:24:32;2.10;99.90
29363;DHT22;16349;53.672;10.014;2023-11-22T09:26:59;2.10;99.90
29363;DHT22;16349;53.672;10.014;2023-11-22T09:29:28;2.20;99.90
29363;DHT22;16349;53.672;10.014;2023-11-22T09:31:55;2.20;99.90
29363;DHT22;16349;53.672;10.014;2023-11-22T09:34:23;2.30;99.90
29363;DHT22;16349;53.672;10.014;2023-11-22T09:36:50;2.30;99.90
29363;DHT22;16349;53.672;10.014;2023-11-22T09:39:17;2.30;99.90
29363;DHT22;16349;53.672;10.014;2023-11-22T09:41:47;2.30;99.90
29363;DHT22;16349;53.672;10.014;2023-11-22T09:44:14;2.40;99.90
29363;DHT22;16349;53.672;10.014;2023-11-22T09:46:42;2.50;99.90
29363;DHT22;16349;53.672;10.014;2023-11-22T09:49:14;2.50;99.90
29363;DHT22;16349;53.672;10.014;2023-11-22T09:51:50;2.60;99.90
29363;DHT22;16349;53.672;10.014;2023-11-22T09:54:18;2.60;99.90
29363;DHT22;16349;53.672;10.014;2023-11-22T09:56:46;2.70;99.90
29363;DHT22;16349;53.672;10.014;2023-11-22T09:59:18;2.70;99.90
29363;DHT22;16349;53.672;10.014;2023-11-22T10:01:45;2.70;99.90
29363;DHT22;16349;53.672;10.014;2023-11-22T10:04:12;2.80;99.90
29363;DHT22;16349;53.672;10.014;2023-11-22T10:06:38;2.80;99.90
29363;DHT22;16349;53.672;10.014;2023-11-22T10:09:07;2.90;99.90
29363;DHT22;16349;53.672;10.014;2023-11-22T10:11:35;2.90;99.90
29363;DHT22;16349;53.672;10.014;2023-11-22T10:14:02;2.90;99.90
29363;DHT22;16349;53.672;10.014;2023-11-22T10:16:28;3.00;99.90
29363;DHT22;16349;53.672;10.014;2023-11-22T10:18:55;3.00;99.90
29363;DHT22;16349;53.672;10.014;2023-11-22T10:21:25;3.10;99.90
29363;DHT22;16349;53.672;10.014;2023-11-22T10:23:54;3.20;99.90
29363;DHT22;16349;53.672;10.014;2023-11-22T10:26:23;3.20;99.90
29363;DHT22;16349;53.672;10.014;2023-11-22T10:28:51;3.30;99.90
29363;DHT22;16349;53.672;10.014;2023-11-22T10:31:18;3.30;99.90
29363;DHT22;16349;53.672;10.014;2023-11-22T10:33:46;3.40;99.90
29363;DHT22;16349;53.672;10.014;2023-11-22T10:36:13;3.50;99.90
29363;DHT22;16349;53.672;10.014;2023-11-22T10:38:40;3.50;99.90
29363;DHT22;16349;53.672;10.014;2023-11-22T10:41:08;3.50;99.90
29363;DHT22;16349;53.672;10.014;2023-11-22T10:43:37;3.60;99.90
29363;DHT22;16349;53.672;10.014;2023-11-22T10:46:05;3.60;99.90
29363;DHT22;16349;53.672;10.014;2023-11-22T10:48:32;3.70;99.90
29363;DHT22;16349;53.672;10.014;2023-11-22T10:51:00;3.70;99.90
29363;DHT22;16349;53.672;10.014;2023-11-22T10:53:32;3.70;99.90
29363;DHT22;16349;53.672;10.014;2023-11-22T10:56:04;3.80;99.90
29363;DHT22;16349;53.672;10.014;2023-11-22T10:58:33;3.80;99.90
29363;DHT22;16349;53.672;10.014;2023-11-22T11:01:05;3.80;99.90
29363;DHT22;16349;53.672;10.014;2023-11-22T11:03:37;3.90;99.90
29363;DHT22;16349;53.672;10.014;2023-11-22T11:06:08;4.00;99.90
29363;DHT22;16349;53.672;10.014;2023-11-22T11:08:39;4.00;99.90
29363;DHT22;16349;53.672;10.014;2023-11-22T11:11:09;4.00;99.90
29363;DHT22;16349;53.672;10.014;2023-11-22T11:13:35;4.00;99.90
29363;DHT22;16349;53.672;10.014;2023-11-22T11:16:04;4.00;99.90
29363;DHT22;16349;53.672;10.014;2023-11-22T11:18:32;4.00;99.90
29363;DHT22;16349;53.672;10.014;2023-11-22T11:21:07;4.10;99.90
29363;DHT22;16349;53.672;10.014;2023-11-22T11:23:39;4.20;99.90
29363;DHT22;16349;53.672;10.014;2023-11-22T11:26:14;4.20;99.90
29363;DHT22;16349;53.672;10.014;2023-11-22T11:28:42;4.20;99.90
29363;DHT22;16349;53.672;10.014;2023-11-22T11:31:12;4.20;99.90
29363;DHT22;16349;53.672;10.014;2023-11-22T11:33:56;4.30;99.90
29363;DHT22;16349;53.672;10.014;2023-11-22T11:36:26;4.40;99.90
29363;DHT22;16349;53.672;10.014;2023-11-22T11:38:55;4.40;99.90
29363;DHT22;16349;53.672;10.014;2023-11-22T11:41:25;4.40;99.90
29363;DHT22;16349;53.672;10.014;2023-11-22T11:43:53;4.40;99.90
29363;DHT22;16349;53.672;10.014;2023-11-22T11:46:23;4.50;99.90
29363;DHT22;16349;53.672;10.014;2023-11-22T11:48:52;4.50;99.90
29363;DHT22;16349;53.672;10.014;2023-11-22T11:51:23;4.50;99.90
29363;DHT22;16349;53.672;10.014;2023-11-22T11:53:50;4.60;99.90
29363;DHT22;16349;53.672;10.014;2023-11-22T11:56:17;4.60;99.90
29363;DHT22;16349;53.672;10.014;2023-11-22T11:58:44;4.60;99.90
29363;DHT22;16349;53.672;10.014;2023-11-22T12:01:12;4.70;99.90
29363;DHT22;16349;53.672;10.014;2023-11-22T12:03:40;4.70;99.90
29363;DHT22;16349;53.672;10.014;2023-11-22T12:06:08;4.70;99.90
29363;DHT22;16349;53.672;10.014;2023-11-22T12:08:35;4.70;99.90
29363;DHT22;16349;53.672;10.014;2023-11-22T12:11:02;4.70;99.90
29363;DHT22;16349;53.672;10.014;2023-11-22T12:13:31;4.70;99.90
29363;DHT22;16349;53.672;10.014;2023-11-22T12:16:00;4.70;99.90
29363;DHT22;16349;53.672;10.014;2023-11-22T12:18:28;4.70;99.90
29363;DHT22;16349;53.672;10.014;2023-11-22T12:20:59;4.70;99.90
29363;DHT22;16349;53.672;10.014;2023-11-22T12:23:27;4.70;99.90
29363;DHT22;16349;53.672;10.014;2023-11-22T12:25:55;4.70;99.90
29363;DHT22;16349;53.672;10.014;2023-11-22T12:28:23;4.80;99.90
29363;DHT22;16349;53.672;10.014;2023-11-22T12:30:50;4.80;99.90
29363;DHT22;16349;53.672;10.014;2023-11-22T12:33:17;4.80;99.90
29363;DHT22;16349;53.672;10.014;2023-11-22T12:35:45;4.80;99.90
29363;DHT22;16349;53.672;10.014;2023-11-22T12:38:13;4.70;99.90
29363;DHT22;16349;53.672;10.014;2023-11-22T12:40:43;4.70;99.90
29363;DHT22;16349;53.672;10.014;2023-11-22T12:43:12;4.60;99.90
29363;DHT22;16349;53.672;10.014;2023-11-22T12:45:40;4.60;99.90
29363;DHT22;16349;53.672;10.014;2023-11-22T12:48:25;4.60;99.90
29363;DHT22;16349;53.672;10.014;2023-11-22T12:50:56;4.60;99.90
29363;DHT22;16349;53.672;10.014;2023-11-22T12:53:25;4.60;99.90
29363;DHT22;16349;53.672;10.014;2023-11-22T12:55:54;4.50;99.90
29363;DHT22;16349;53.672;10.014;2023-11-22T12:58:23;4.50;99.90
29363;DHT22;16349;53.672;10.014;2023-11-22T13:00:52;4.50;99.90
29363;DHT22;16349;53.672;10.014;2023-11-22T13:03:24;4.50;99.90
29363;DHT22;16349;53.672;10.014;2023-11-22T13:05:50;4.50;99.90
29363;DHT22;16349;53.672;10.014;2023-11-22T13:08:18;4.50;99.90
29363;DHT22;16349;53.672;10.014;2023-11-22T13:10:49;4.50;99.90
29363;DHT22;16349;53.672;10.014;2023-11-22T13:13:19;4.50;99.90
29363;DHT22;16349;53.672;10.014;2023-11-22T13:15:46;4.50;99.90
29363;DHT22;16349;53.672;10.014;2023-11-22T13:18:13;4.50;99.90
29363;DHT22;16349;53.672;10.014;2023-11-22T13:20:40;4.40;99.90
29363;DHT22;16349;53.672;10.014;2023-11-22T13:23:08;4.40;99.90
29363;DHT22;16349;53.672;10.014;2023-11-22T13:25:35;4.40;99.90
29363;DHT22;16349;53.672;10.014;2023-11-22T13:28:04;4.40;99.90
29363;DHT22;16349;53.672;10.014;2023-11-22T13:30:31;4.40;99.90
29363;DHT22;16349;53.672;10.014;2023-11-22T13:32:58;4.40;99.90
29363;DHT22;16349;53.672;10.014;2023-11-22T13:35:25;4.40;99.90
29363;DHT22;16349;53.672;10.014;2023-11-22T13:37:57;4.30;99.90
29363;DHT22;16349;53.672;10.014;2023-11-22T13:40:24;4.30;99.90
29363;DHT22;16349;53.672;10.014;2023-11-22T13:42:56;4.30;99.90
29363;DHT22;16349;53.672;10.014;2023-11-22T13:45:25;4.30;99.90
29363;DHT22;16349;53.672;10.014;2023-11-22T13:47:53;4.30;99.90
29363;DHT22;16349;53.672;10.014;2023-11-22T13:50:23;4.30;99.90
29363;DHT22;16349;53.672;10.014;2023-11-22T13:52:53;4.30;99.90
29363;DHT22;16349;53.672;10.014;2023-11-22T13:55:21;4.20;99.90
29363;DHT22;16349;53.672;10.014;2023-11-22T13:57:49;4.20;99.90
29363;DHT22;16349;53.672;10.014;2023-11-22T14:00:17;4.20;99.90
29363;DHT22;16349;53.672;10.014;2023-11-22T14:02:47;4.10;99.90
29363;DHT22;16349;53.672;10.014;2023-11-22T14:05:14;4.10;99.90
29363;DHT22;16349;53.672;10.014;2023-11-22T14:07:42;4.10;99.90
29363;DHT22;16349;53.672;10.014;2023-11-22T14:10:10;4.10;99.90
29363;DHT22;16349;53.672;10.014;2023-11-22T14:12:40;4.00;99.90
29363;DHT22;16349;53.672;10.014;2023-11-22T14:15:10;4.00;99.90
29363;DHT22;16349;53.672;10.014;2023-11-22T14:17:37;4.00;99.90
29363;DHT22;16349;53.672;10.014;2023-11-22T14:20:07;4.00;99.90
29363;DHT22;16349;53.672;10.014;2023-11-22T14:22:35;4.00;99.90
29363;DHT22;16349;53.672;10.014;2023-11-22T14:25:02;3.90;99.90
29363;DHT22;16349;53.672;10.014;2023-11-22T14:27:33;3.90;99.90
29363;DHT22;16349;53.672;10.014;2023-11-22T14:30:00;3.90;99.90
29363;DHT22;16349;53.672;10.014;2023-11-22T14:32:31;3.90;99.90
29363;DHT22;16349;53.672;10.014;2023-11-22T14:34:58;3.90;99.90
29363;DHT22;16349;53.672;10.014;2023-11-22T14:37:26;3.90;99.90
29363;DHT22;16349;53.672;10.014;2023-11-22T14:39:53;3.80;99.90
29363;DHT22;16349;53.672;10.014;2023-11-22T14:42:20;3.80;99.90
29363;DHT22;16349;53.672;10.014;2023-11-22T14:44:47;3.80;99.90
29363;DHT22;16349;53.672;10.014;2023-11-22T14:47:14;3.80;99.90
29363;DHT22;16349;53.672;10.014;2023-11-22T14:49:45;3.80;99.90
29363;DHT22;16349;53.672;10.014;2023-11-22T14:52:11;3.80;99.90
29363;DHT22;16349;53.672;10.014;2023-11-22T14:54:40;3.80;99.90
29363;DHT22;16349;53.672;10.014;2023-11-22T14:57:07;3.80;99.90
29363;DHT22;16349;53.672;10.014;2023-11-22T14:59:35;3.80;99.90
29363;DHT22;16349;53.672;10.014;2023-11-22T15:02:03;3.80;99.90
29363;DHT22;16349;53.672;10.014;2023-11-22T15:04:32;3.80;99.90
29363;DHT22;16349;53.672;10.014;2023-11-22T15:07:00;3.80;99.90
29363;DHT22;16349;53.672;10.014;2023-11-22T15:09:27;3.80;99.90
29363;DHT22;16349;53.672;10.014;2023-11-22T15:11:55;3.80;99.90
29363;DHT22;16349;53.672;10.014;2023-11-22T15:14:23;3.80;99.90
29363;DHT22;16349;53.672;10.014;2023-11-22T15:16:51;3.80;99.90
29363;DHT22;16349;53.672;10.014;2023-11-22T15:19:18;3.80;99.90
29363;DHT22;16349;53.672;10.014;2023-11-22T15:21:47;3.80;99.90
29363;DHT22;16349;53.672;10.014;2023-11-22T15:24:14;3.80;99.90
29363;DHT22;16349;53.672;10.014;2023-11-22T15:26:41;3.80;99.90
29363;DHT22;16349;53.672;10.014;2023-11-22T15:29:09;3.80;99.90
29363;DHT22;16349;53.672;10.014;2023-11-22T15:31:36;3.80;99.90
29363;DHT22;16349;53.672;10.014;2023-11-22T15:34:03;3.80;99.90